Time;durP1;ratioP1;P1;durP2;ratioP2;P2;SDS_P1;SDS_P2;PMS_P1;PMS_P2;Temp;Humidity;BMP_temperature;BMP_pressure;BME280_temperature;BME280_humidity;BME280_pressure;Samples;Min_cycle;Max_cycle;Signal;HPM_P1;HPM_P2
2023/02/12 00:01:20;;;;;;;85.47;47.20;;;1.00;85.40;;;;;;4953894;28;20049;-71
2023/02/12 00:03:48;;;;;;;99.65;52.25;;;1.20;84.70;;;;;;4971992;28;20407;-70
2023/02/12 00:06:15;;;;;;;112.70;57.08;;;1.30;85.60;;;;;;4970947;28;20050;-71
2023/02/12 00:08:43;;;;;;;108.07;55.88;;;0.90;87.30;;;;;;4972795;28;20050;-71
2023/02/12 00:11:13;;;;;;;114.68;61.35;;;1.10;87.70;;;;;;4954946;28;20055;-71
2023/02/12 00:13:41;;;;;;;;;;;0.90;88.90;;;;;;4945426;28;20053;-71
2023/02/12 00:16:11;;;;;;;117.93;61.40;;;1.00;90.10;;;;;;4968672;28;20026;-71
2023/02/12 00:18:40;;;;;;;137.55;69.95;;;0.90;90.50;;;;;;4937804;28;20043;-68
2023/02/12 00:21:07;;;;;;;129.25;70.45;;;0.70;91.70;;;;;;4969417;28;20047;-69
2023/02/12 00:23:36;;;;;;;117.50;66.57;;;0.70;91.90;;;;;;4969721;28;20030;-71
2023/02/12 00:26:06;;;;;;;118.35;64.15;;;0.70;92.10;;;;;;4949382;28;20046;-72
2023/02/12 00:28:34;;;;;;;117.90;62.77;;;0.80;92.30;;;;;;4972040;28;20035;-71
2023/02/12 00:31:22;;;;;;;124.45;60.47;;;0.50;93.50;;;;;;4972186;28;20038;-71
2023/02/12 00:33:50;;;;;;;112.70;58.03;;;0.40;93.50;;;;;;4952677;28;20034;-71
2023/02/12 00:36:20;;;;;;;117.20;57.83;;;0.50;94.20;;;;;;4935663;28;20505;-72
2023/02/12 00:38:48;;;;;;;116.82;56.33;;;0.50;95.10;;;;;;4946791;28;20035;-72
2023/02/12 00:41:15;;;;;;;114.22;57.00;;;0.60;95.10;;;;;;4954752;28;20061;-72
2023/02/12 00:43:43;;;;;;;100.82;53.38;;;0.50;95.40;;;;;;4954671;28;20066;-71
2023/02/12 00:46:10;;;;;;;94.55;50.55;;;0.30;95.20;;;;;;4966416;28;20093;-70
2023/02/12 00:48:39;;;;;;;94.75;51.00;;;0.20;95.70;;;;;;4953525;28;20058;-70
2023/02/12 00:51:08;;;;;;;97.05;49.75;;;0.20;96.40;;;;;;4953976;28;20479;-72
2023/02/12 00:53:35;;;;;;;90.07;50.90;;;0.30;96.70;;;;;;4971539;28;20041;-71
2023/02/12 00:56:03;;;;;;;94.32;50.55;;;0.60;96.60;;;;;;4954819;28;20439;-72
2023/02/12 00:58:30;;;;;;;100.60;51.60;;;0.70;96.50;;;;;;4954511;28;20043;-69
2023/02/12 01:00:58;;;;;;;99.43;52.13;;;0.50;96.90;;;;;;4970617;28;20034;-68
2023/02/12 01:03:26;;;;;;;87.75;48.30;;;0.10;98.10;;;;;;4971562;28;20055;-70
2023/02/12 01:05:53;;;;;;;101.60;52.05;;;0.10;98.10;;;;;;4954338;28;20494;-72
2023/02/12 01:08:21;;;;;;;107.85;54.00;;;0.10;97.90;;;;;;4954117;28;20406;-71
2023/02/12 01:11:01;;;;;;;118.97;56.45;;;0.20;97.90;;;;;;4954185;28;20043;-72
2023/02/12 01:13:29;;;;;;;108.25;56.03;;;0.20;97.80;;;;;;4965761;28;20411;-71
2023/02/12 01:16:09;;;;;;;94.30;49.15;;;0.10;97.80;;;;;;4971470;28;20057;-70
2023/02/12 01:18:37;;;;;;;101.03;50.00;;;-0.20;98.30;;;;;;4949880;28;20047;-71
2023/02/12 01:21:16;;;;;;;94.10;47.38;;;-0.20;98.70;;;;;;4971324;28;20126;-70
2023/02/12 01:23:44;;;;;;;93.82;51.75;;;0.00;98.20;;;;;;4954068;28;20138;-69
2023/02/12 01:26:12;;;;;;;90.60;51.10;;;0.00;98.30;;;;;;4935805;28;20043;-70
2023/02/12 01:28:41;;;;;;;87.47;47.95;;;0.10;98.90;;;;;;4969172;28;20039;-71
2023/02/12 01:31:18;;;;;;;89.28;49.05;;;0.00;98.70;;;;;;4965418;28;20410;-70
2023/02/12 01:33:53;;;;;;;93.53;49.78;;;-0.10;99.30;;;;;;4971173;28;20145;-70
2023/02/12 01:36:22;;;;;;;87.20;48.17;;;0.10;99.60;;;;;;4954010;28;20038;-69
2023/02/12 01:38:50;;;;;;;92.97;50.70;;;-0.10;99.90;;;;;;4971032;28;20034;-69
2023/02/12 01:41:24;;;;;;;85.80;46.85;;;-0.10;99.90;;;;;;4955113;28;20391;-69
2023/02/12 01:44:12;;;;;;;87.30;47.58;;;-0.10;99.90;;;;;;4938231;28;20090;-72
2023/02/12 01:46:41;;;;;;;95.35;49.75;;;0.00;99.90;;;;;;4971065;28;20061;-72
2023/02/12 01:49:15;;;;;;;91.45;48.22;;;0.20;99.90;;;;;;4971058;28;20042;-71
2023/02/12 01:51:43;;;;;;;90.50;48.25;;;-0.10;99.90;;;;;;4951422;28;20054;-70
2023/02/12 01:54:14;;;;;;;79.10;44.67;;;-0.20;99.90;;;;;;4971052;28;20042;-74
2023/02/12 01:56:42;;;;;;;75.00;45.42;;;0.00;99.90;;;;;;4971007;28;20217;-72
2023/02/12 01:59:10;;;;;;;81.32;44.38;;;0.10;99.90;;;;;;4971001;28;20451;-71
2023/02/12 02:01:38;;;;;;;67.45;40.60;;;0.20;99.90;;;;;;4971147;28;20039;-70
2023/02/12 02:04:14;;;;;;;72.40;40.50;;;0.00;99.90;;;;;;4948669;28;20039;-70
2023/02/12 02:07:04;;;;;;;80.85;42.00;;;0.00;99.90;;;;;;4970877;28;20058;-70
2023/02/12 02:09:35;;;;;;;71.45;38.03;;;0.00;99.90;;;;;;4970784;28;20559;-72
2023/02/12 02:14:53;;;;;;;75.20;38.72;;;-0.10;99.90;;;;;;4954606;28;20059;-71
2023/02/12 02:17:48;;;;;;;65.57;39.00;;;-0.50;99.90;;;;;;4941461;28;20402;-72
2023/02/12 02:20:23;;;;;;;70.65;42.42;;;-0.50;99.90;;;;;;4974451;28;20034;-70
2023/02/12 02:22:56;;;;;;;89.43;42.80;;;-0.60;99.90;;;;;;4974371;28;20034;-70
2023/02/12 02:25:41;;;;;;;87.15;44.05;;;-0.50;99.90;;;;;;4964481;23;20047;-71
2023/02/12 02:28:30;;;;;;;78.20;42.70;;;-0.40;99.90;;;;;;4909431;28;20050;-71
2023/02/12 02:31:09;;;;;;;91.85;44.55;;;-0.40;99.90;;;;;;4955180;28;20046;-71
2023/02/12 02:33:48;;;;;;;87.22;44.45;;;-0.40;99.90;;;;;;4943577;28;20035;-71
2023/02/12 02:36:21;;;;;;;80.40;43.97;;;0.00;99.90;;;;;;4933237;29;20039;-70
2023/02/12 02:39:21;;;;;;;95.30;49.45;;;-0.30;99.90;;;;;;4954781;28;20036;-72
2023/02/12 02:41:56;;;;;;;86.10;47.88;;;-0.30;99.90;;;;;;4917956;28;20059;-71
2023/02/12 02:45:03;;;;;;;98.93;46.92;;;-0.10;99.90;;;;;;4938069;28;20384;-72
2023/02/12 02:47:44;;;;;;;75.00;43.40;;;-0.10;99.90;;;;;;4937139;29;20051;-70
2023/02/12 02:50:15;;;;;;;88.07;44.35;;;-0.10;99.90;;;;;;4937292;28;20059;-72
2023/02/12 02:53:05;;;;;;;74.40;42.40;;;-0.20;99.90;;;;;;4954836;28;20051;-71
2023/02/12 02:55:39;;;;;;;77.90;43.10;;;0.00;99.90;;;;;;4934858;28;20039;-71
2023/02/12 02:58:17;;;;;;;82.75;44.30;;;0.00;99.90;;;;;;4954456;28;20043;-70
2023/02/12 03:00:59;;;;;;;74.32;42.75;;;-0.10;99.90;;;;;;4951680;28;20039;-71
2023/02/12 03:03:44;;;;;;;77.55;41.60;;;-0.10;99.90;;;;;;4937131;29;20058;-67
2023/02/12 03:06:19;;;;;;;86.53;45.20;;;-0.20;99.90;;;;;;4954247;28;20036;-71
2023/02/12 03:08:54;;;;;;;80.90;41.92;;;-0.50;99.90;;;;;;4954175;28;20051;-70
2023/02/12 03:11:21;;;;;;;91.43;45.15;;;-0.30;99.90;;;;;;4952503;28;20067;-71
2023/02/12 03:14:12;;;;;;;90.18;46.10;;;-0.40;99.90;;;;;;4954103;28;20478;-71
2023/02/12 03:17:00;;;;;;;80.68;44.95;;;-0.30;99.90;;;;;;4937055;28;20425;-70
2023/02/12 03:19:43;;;;;;;74.22;46.30;;;-0.20;99.90;;;;;;4953978;28;20399;-71
2023/02/12 03:22:21;;;;;;;80.25;42.90;;;0.00;99.90;;;;;;4937384;28;20078;-70
2023/02/12 03:24:56;;;;;;;78.88;43.97;;;-0.40;99.90;;;;;;4933041;29;20142;-72
2023/02/12 03:27:36;;;;;;;82.72;43.25;;;-0.20;99.90;;;;;;4937665;29;20066;-73
2023/02/12 03:30:04;;;;;;;76.72;43.38;;;0.10;99.90;;;;;;4953441;29;20521;-70
2023/02/12 03:32:51;;;;;;;73.38;38.60;;;0.00;99.90;;;;;;4954144;29;20047;-73
2023/02/12 03:35:37;;;;;;;69.85;39.17;;;-0.10;99.90;;;;;;4943947;29;20059;-71
2023/02/12 03:38:29;;;;;;;69.75;38.95;;;0.00;99.90;;;;;;4944587;29;20502;-71
2023/02/12 03:41:10;;;;;;;83.30;39.22;;;0.10;99.90;;;;;;4941635;29;20479;-70
2023/02/12 03:43:49;;;;;;;66.22;35.28;;;0.30;99.90;;;;;;4921076;29;20039;-72
2023/02/12 03:46:22;;;;;;;67.22;36.08;;;0.40;99.90;;;;;;4937154;29;20043;-72
2023/02/12 03:49:16;;;;;;;65.93;37.83;;;0.40;99.90;;;;;;4936533;29;20502;-72
2023/02/12 03:51:44;;;;;;;80.25;41.60;;;0.50;99.90;;;;;;4949644;29;20048;-72
2023/02/12 03:54:15;;;;;;;80.45;42.45;;;0.50;99.90;;;;;;4928684;29;20066;-69
2023/02/12 03:56:47;;;;;;;;;;;0.50;99.90;;;;;;4953865;29;20439;-71
2023/02/12 03:59:15;;;;;;;71.25;39.75;;;0.60;99.90;;;;;;4941336;29;19922;-70
2023/02/12 04:01:42;;;;;;;75.30;43.60;;;0.70;99.90;;;;;;4943794;29;20055;-71
2023/02/12 04:04:10;;;;;;;79.95;45.33;;;0.60;99.90;;;;;;4933664;29;20070;-71
2023/02/12 04:06:38;;;;;;;92.80;47.35;;;0.50;99.90;;;;;;4936775;29;20043;-72
2023/02/12 04:09:11;;;;;;;80.38;45.67;;;0.60;99.90;;;;;;4936494;29;20102;-70
2023/02/12 04:12:02;;;;;;;85.93;44.58;;;0.70;99.90;;;;;;4936451;29;20062;-72
2023/02/12 04:14:38;;;;;;;88.97;48.30;;;0.30;99.90;;;;;;4917661;29;20058;-70
2023/02/12 04:17:28;;;;;;;88.47;47.55;;;0.40;99.90;;;;;;4923328;29;20046;-71
2023/02/12 04:20:24;;;;;;;89.68;48.80;;;0.30;99.90;;;;;;4935741;29;20054;-72
2023/02/12 04:23:23;;;;;;;90.70;45.95;;;0.20;99.90;;;;;;4953212;29;20035;-71
2023/02/12 04:26:15;;;;;;;82.53;44.90;;;0.10;99.90;;;;;;4925994;29;20047;-72
2023/02/12 04:29:36;;;;;;;85.20;47.88;;;0.10;99.90;;;;;;4918245;29;20050;-69
2023/02/12 04:32:23;;;;;;;69.18;41.72;;;0.10;99.90;;;;;;4850004;29;20422;-70
2023/02/12 04:34:56;;;;;;;76.82;42.03;;;-0.10;99.90;;;;;;4912875;29;20059;-73
2023/02/12 04:37:44;;;;;;;76.68;41.53;;;-0.10;99.90;;;;;;4934088;29;20496;-71
2023/02/12 04:40:15;;;;;;;66.68;38.45;;;-0.20;99.90;;;;;;4916904;29;20052;-72
2023/02/12 04:42:45;;;;;;;67.93;40.33;;;0.00;99.90;;;;;;4934183;29;20131;-71
2023/02/12 04:45:16;;;;;;;68.93;37.67;;;-0.10;99.90;;;;;;4916752;29;20036;-73
2023/02/12 04:47:43;;;;;;;66.78;38.97;;;0.10;99.90;;;;;;4954128;23;20055;-72
2023/02/12 04:50:11;;;;;;;71.63;39.85;;;0.30;99.90;;;;;;4916779;29;20036;-72
2023/02/12 04:52:38;;;;;;;69.40;39.72;;;0.40;99.90;;;;;;4923126;29;20032;-72
2023/02/12 04:55:05;;;;;;;73.93;40.53;;;0.30;99.90;;;;;;4932493;29;20096;-71
2023/02/12 04:57:33;;;;;;;79.38;41.28;;;0.30;99.90;;;;;;4917236;29;20075;-72
2023/02/12 05:00:00;;;;;;;69.68;41.05;;;-0.30;99.90;;;;;;4932753;29;20037;-71
2023/02/12 05:02:37;;;;;;;73.28;40.45;;;-0.60;99.90;;;;;;4897893;29;20051;-71
2023/02/12 05:05:07;;;;;;;72.70;40.08;;;-0.80;99.90;;;;;;4890590;29;20500;-70
2023/02/12 05:07:35;;;;;;;68.50;40.28;;;-0.40;99.90;;;;;;4933714;29;20036;-73
2023/02/12 05:10:03;;;;;;;64.35;35.67;;;-0.40;99.90;;;;;;4916016;29;20050;-71
2023/02/12 05:12:31;;;;;;;71.63;35.92;;;-0.80;99.90;;;;;;4912429;29;20091;-71
2023/02/12 05:14:58;;;;;;;69.05;38.70;;;-0.70;99.90;;;;;;4933129;29;20040;-72
2023/02/12 05:17:26;;;;;;;65.72;35.65;;;-0.40;99.90;;;;;;4915101;29;20048;-73
2023/02/12 05:19:53;;;;;;;73.63;40.50;;;-0.50;99.90;;;;;;4913924;29;20130;-73
2023/02/12 05:22:20;;;;;;;73.95;39.83;;;-0.60;99.90;;;;;;4922533;29;20048;-73
2023/02/12 05:24:48;;;;;;;68.15;40.40;;;-0.40;99.90;;;;;;4906432;29;20040;-75
2023/02/12 05:27:15;;;;;;;137.65;71.18;;;-0.20;99.90;;;;;;4896729;29;20044;-74
2023/02/12 05:29:43;;;;;;;105.22;54.70;;;0.30;99.90;;;;;;4932660;29;20063;-74
2023/02/12 05:32:10;;;;;;;117.65;59.78;;;0.40;99.90;;;;;;4930305;29;20448;-74
2023/02/12 05:34:38;;;;;;;131.65;68.95;;;0.30;99.90;;;;;;4908116;29;20047;-71
2023/02/12 05:37:05;;;;;;;100.68;55.45;;;0.60;99.90;;;;;;4926621;29;20044;-73
2023/02/12 05:39:32;;;;;;;102.68;51.20;;;0.60;99.90;;;;;;4906024;29;20044;-72
2023/02/12 05:42:00;;;;;;;85.85;49.00;;;0.50;99.90;;;;;;4921806;29;20039;-70
2023/02/12 05:44:27;;;;;;;76.28;42.63;;;0.60;99.90;;;;;;4912241;29;20067;-74
2023/02/12 05:46:54;;;;;;;72.10;39.50;;;0.70;99.90;;;;;;4921911;29;20047;-72
2023/02/12 05:49:22;;;;;;;62.15;37.67;;;0.80;99.90;;;;;;4900970;29;20051;-72
2023/02/12 05:51:49;;;;;;;82.65;40.28;;;0.50;99.90;;;;;;4935586;29;20044;-73
2023/02/12 05:54:17;;;;;;;74.50;39.83;;;0.60;99.90;;;;;;4919192;29;20050;-72
2023/02/12 05:56:46;;;;;;;67.40;40.05;;;0.60;99.90;;;;;;4935961;29;20044;-71
2023/02/12 05:59:19;;;;;;;71.63;38.17;;;0.60;99.90;;;;;;4936180;29;20048;-69
2023/02/12 06:01:49;;;;;;;71.00;38.28;;;0.70;99.90;;;;;;4917547;29;20059;-70
2023/02/12 06:04:20;;;;;;;66.53;37.17;;;0.60;99.90;;;;;;4911777;29;20074;-69
2023/02/12 06:06:48;;;;;;;74.03;37.83;;;0.40;99.90;;;;;;4929211;29;20357;-69
2023/02/12 06:09:15;;;;;;;63.97;37.95;;;0.00;99.90;;;;;;4932993;29;20472;-70
2023/02/12 06:11:43;;;;;;;70.18;36.55;;;0.20;99.90;;;;;;4917401;29;20055;-70
2023/02/12 06:14:16;;;;;;;64.93;37.53;;;0.30;99.90;;;;;;4929650;29;20488;-71
2023/02/12 06:16:45;;;;;;;67.80;38.08;;;0.30;99.90;;;;;;4934632;29;20047;-70
2023/02/12 06:19:13;;;;;;;68.05;37.15;;;0.10;99.90;;;;;;4934205;29;20460;-70
2023/02/12 06:21:41;;;;;;;68.97;38.33;;;0.20;99.90;;;;;;4932712;29;20044;-71
2023/02/12 06:24:13;;;;;;;69.57;38.47;;;0.10;99.90;;;;;;4918931;29;20047;-70
2023/02/12 06:26:40;;;;;;;73.55;37.90;;;0.50;99.90;;;;;;4933101;29;20468;-70
2023/02/12 06:29:07;;;;;;;73.68;39.63;;;0.60;99.90;;;;;;4931660;29;20070;-69
2023/02/12 06:31:36;;;;;;;69.30;40.80;;;0.80;99.90;;;;;;4934869;29;20409;-70
2023/02/12 06:34:06;;;;;;;66.65;40.05;;;0.90;99.90;;;;;;4919073;29;20135;-70
2023/02/12 06:36:36;;;;;;;75.57;40.55;;;0.70;99.90;;;;;;4911121;29;20063;-68
2023/02/12 06:39:04;;;;;;;67.80;38.50;;;0.90;99.90;;;;;;4935879;29;20078;-70
2023/02/12 06:41:31;;;;;;;73.30;39.20;;;0.90;99.90;;;;;;4918882;29;20052;-70
2023/02/12 06:43:59;;;;;;;76.28;41.80;;;1.00;99.90;;;;;;4899820;29;20056;-70
2023/02/12 06:46:27;;;;;;;77.75;39.72;;;1.10;99.90;;;;;;4928502;29;20067;-69
2023/02/12 06:48:57;;;;;;;70.35;39.00;;;0.90;99.90;;;;;;4935335;29;20096;-71
2023/02/12 06:51:25;;;;;;;65.20;38.47;;;1.10;99.90;;;;;;4907031;29;20050;-69
2023/02/12 06:53:54;;;;;;;58.47;31.17;;;1.30;99.90;;;;;;4908321;29;20074;-70
2023/02/12 06:56:22;;;;;;;64.40;37.47;;;1.50;99.90;;;;;;4900316;29;20051;-70
2023/02/12 06:58:59;;;;;;;74.75;40.50;;;1.30;99.90;;;;;;4914624;29;20043;-71
2023/02/12 07:01:29;;;;;;;68.93;38.92;;;1.10;99.90;;;;;;4897317;29;20051;-71
2023/02/12 07:04:00;;;;;;;72.20;40.53;;;1.20;99.90;;;;;;4898993;29;20035;-71
2023/02/12 07:06:30;;;;;;;81.45;43.28;;;1.10;99.90;;;;;;4906956;29;20552;-70
2023/02/12 07:08:57;;;;;;;76.37;42.73;;;0.90;99.90;;;;;;4934427;29;20050;-70
2023/02/12 07:11:28;;;;;;;84.10;41.88;;;0.70;99.90;;;;;;4929836;29;20294;-71
2023/02/12 07:13:55;;;;;;;71.07;42.05;;;0.90;99.90;;;;;;4934080;29;20415;-71
2023/02/12 07:16:28;;;;;;;68.57;42.55;;;1.10;99.90;;;;;;4916570;29;20043;-71
2023/02/12 07:18:57;;;;;;;81.88;46.15;;;1.10;99.90;;;;;;4914349;29;20054;-71
2023/02/12 07:21:24;;;;;;;76.22;44.90;;;1.10;99.90;;;;;;4900024;29;20056;-71
2023/02/12 07:23:52;;;;;;;76.13;41.80;;;1.20;99.90;;;;;;4929572;29;20036;-70
2023/02/12 07:26:20;;;;;;;79.38;39.47;;;1.20;99.90;;;;;;4897087;29;20399;-70
2023/02/12 07:28:50;;;;;;;64.78;36.13;;;1.10;99.90;;;;;;4919886;29;20440;-71
2023/02/12 07:31:21;;;;;;;63.08;36.95;;;1.20;99.90;;;;;;4934932;29;20031;-71
2023/02/12 07:33:54;;;;;;;;;;;0.90;99.90;;;;;;4918249;29;20075;-71
2023/02/12 07:36:27;;;;;;;51.20;28.60;;;0.80;99.90;;;;;;4902352;29;19930;-72
2023/02/12 07:39:02;;;;;;;48.03;28.25;;;0.90;99.90;;;;;;4900744;29;20460;-73
2023/02/12 07:41:32;;;;;;;52.60;29.55;;;0.90;99.90;;;;;;4900700;29;20044;-70
2023/02/12 07:44:05;;;;;;;48.33;28.00;;;1.10;99.90;;;;;;4931207;29;20028;-68
2023/02/12 07:46:35;;;;;;;50.92;29.40;;;1.30;99.90;;;;;;4933481;29;20060;-71
2023/02/12 07:49:04;;;;;;;59.22;31.27;;;1.50;99.90;;;;;;4915889;29;20048;-70
2023/02/12 07:51:33;;;;;;;62.08;33.28;;;1.60;99.90;;;;;;4933640;29;20059;-70
2023/02/12 07:54:02;;;;;;;54.90;33.25;;;1.50;99.90;;;;;;4933521;29;20404;-70
2023/02/12 07:56:33;;;;;;;56.95;33.35;;;1.70;99.90;;;;;;4934025;29;20048;-69
2023/02/12 07:59:04;;;;;;;70.00;34.53;;;1.80;99.90;;;;;;4916171;29;20047;-71
2023/02/12 08:01:37;;;;;;;54.65;32.22;;;1.90;99.90;;;;;;4925474;29;20092;-70
2023/02/12 08:04:10;;;;;;;65.68;36.03;;;1.90;99.60;;;;;;4913349;29;20122;-69
2023/02/12 08:06:41;;;;;;;60.58;37.92;;;1.80;99.80;;;;;;4934389;29;20115;-70
2023/02/12 08:09:09;;;;;;;;;;;2.00;99.90;;;;;;4931639;29;20118;-71
2023/02/12 08:11:38;;;;;;;58.03;33.03;;;2.20;99.50;;;;;;4926433;29;20583;-70
2023/02/12 08:14:05;;;;;;;55.78;35.13;;;2.10;98.70;;;;;;4933519;29;20038;-70
2023/02/12 08:16:38;;;;;;;64.13;34.90;;;2.20;99.20;;;;;;4917338;29;20064;-69
2023/02/12 08:19:06;;;;;;;65.30;36.30;;;2.40;98.60;;;;;;4898099;29;20055;-71
2023/02/12 08:21:49;;;;;;;67.68;36.28;;;2.60;97.70;;;;;;4931423;29;20055;-71
2023/02/12 08:24:17;;;;;;;93.55;48.60;;;2.60;98.00;;;;;;4925550;29;20042;-72
2023/02/12 08:26:44;;;;;;;102.88;52.45;;;2.50;99.40;;;;;;4933770;29;20054;-71
2023/02/12 08:29:21;;;;;;;89.68;51.28;;;2.70;99.90;;;;;;4914177;29;20044;-70
2023/02/12 08:31:49;;;;;;;105.28;54.05;;;2.80;99.90;;;;;;4916158;29;20433;-69
2023/02/12 08:34:19;;;;;;;84.65;51.42;;;2.90;99.90;;;;;;4900848;29;20049;-69
2023/02/12 08:36:49;;;;;;;95.70;56.03;;;3.10;99.90;;;;;;4913433;29;20067;-69
2023/02/12 08:39:17;;;;;;;106.82;54.83;;;3.10;99.50;;;;;;4932971;29;20035;-71
2023/02/12 08:41:46;;;;;;;102.05;54.10;;;3.20;98.90;;;;;;4933250;29;20048;-69
2023/02/12 08:44:14;;;;;;;97.50;53.22;;;3.20;98.70;;;;;;4915529;29;20408;-70
2023/02/12 08:46:47;;;;;;;96.28;53.63;;;3.20;98.30;;;;;;4927259;29;20138;-68
2023/02/12 08:49:16;;;;;;;81.28;48.38;;;3.20;97.80;;;;;;4907156;29;20052;-69
2023/02/12 08:51:49;;;;;;;86.68;49.33;;;3.30;98.20;;;;;;4902126;29;20080;-71
2023/02/12 08:54:20;;;;;;;106.30;58.53;;;3.40;97.60;;;;;;4916529;29;20139;-73
2023/02/12 08:56:47;;;;;;;106.00;59.05;;;3.40;98.40;;;;;;4932945;29;20047;-71
2023/02/12 08:59:15;;;;;;;99.40;53.20;;;3.20;98.90;;;;;;4929925;29;20047;-71
2023/02/12 09:01:43;;;;;;;90.10;47.70;;;3.40;99.40;;;;;;4913300;29;20050;-70
2023/02/12 09:04:16;;;;;;;71.18;44.08;;;3.20;98.40;;;;;;4900110;29;20063;-71
2023/02/12 09:06:45;;;;;;;69.95;42.88;;;3.20;97.90;;;;;;4933714;29;20040;-71
2023/02/12 09:09:13;;;;;;;68.97;40.38;;;3.20;97.80;;;;;;4915384;29;20066;-70
2023/02/12 09:11:40;;;;;;;62.85;35.88;;;3.10;97.30;;;;;;4933578;29;20131;-71
2023/02/12 09:14:11;;;;;;;66.70;34.22;;;3.00;96.00;;;;;;4916170;29;20441;-70
2023/02/12 09:16:39;;;;;;;63.63;35.58;;;2.90;95.60;;;;;;4914771;29;20039;-71
2023/02/12 09:19:08;;;;;;;71.50;39.25;;;3.10;95.70;;;;;;4916280;29;20054;-73
2023/02/12 09:21:35;;;;;;;79.75;42.42;;;3.40;95.90;;;;;;4916241;29;20044;-72
2023/02/12 09:24:03;;;;;;;73.28;41.22;;;3.10;97.30;;;;;;4932759;29;20482;-74
2023/02/12 09:26:30;;;;;;;68.43;39.92;;;3.40;96.20;;;;;;4900876;29;20482;-73
2023/02/12 09:28:58;;;;;;;64.72;37.63;;;3.50;95.00;;;;;;4926591;29;20043;-73
2023/02/12 09:31:35;;;;;;;60.83;37.75;;;3.70;94.60;;;;;;4900082;29;20477;-73
2023/02/12 09:34:05;;;;;;;70.22;37.85;;;3.70;93.80;;;;;;4918033;29;20120;-74
2023/02/12 09:36:33;;;;;;;65.80;37.70;;;3.50;94.10;;;;;;4929926;29;20044;-73
2023/02/12 09:39:02;;;;;;;62.38;35.60;;;3.40;94.00;;;;;;4907083;29;20056;-76
2023/02/12 09:42:03;;;;;;;127.97;65.22;;;3.50;94.10;;;;;;4911559;29;20051;-75
2023/02/12 09:44:46;;;;;;;78.05;42.00;;;3.70;94.40;;;;;;4906614;29;20044;-72
2023/02/12 09:47:22;;;;;;;112.07;57.83;;;3.70;94.00;;;;;;4913010;29;20095;-71
2023/02/12 09:50:28;;;;;;;132.80;63.38;;;3.80;93.20;;;;;;4913413;29;20095;-76
2023/02/12 09:52:57;;;;;;;107.13;55.95;;;3.80;92.60;;;;;;4925806;29;20044;-70
2023/02/12 09:55:31;;;;;;;127.65;68.18;;;4.10;91.40;;;;;;4909964;29;20048;-72
2023/02/12 09:58:10;;;;;;;54.63;33.75;;;4.20;91.80;;;;;;4912198;29;20409;-70
2023/02/12 10:00:41;;;;;;;51.67;31.42;;;4.20;90.70;;;;;;4912217;29;20509;-75
2023/02/12 10:03:15;;;;;;;45.20;27.85;;;4.10;91.00;;;;;;4897312;29;20044;-72
2023/02/12 10:06:01;;;;;;;43.25;25.65;;;4.10;90.40;;;;;;4911053;29;20143;-70
2023/02/12 10:09:00;;;;;;;43.53;25.95;;;4.20;91.00;;;;;;4894639;29;20076;-73
2023/02/12 10:12:18;;;;;;;41.90;25.40;;;4.20;91.30;;;;;;4911248;29;20037;-74
2023/02/12 10:15:11;;;;;;;;;;;4.20;91.40;;;;;;4935046;23;20603;-72
2023/02/12 10:18:11;;;;;;;37.20;23.30;;;4.10;91.20;;;;;;4941131;28;19970;-71
2023/02/12 10:21:04;;;;;;;41.80;23.25;;;4.00;91.60;;;;;;4935740;28;20046;-73
2023/02/12 10:23:44;;;;;;;35.90;23.83;;;4.20;91.90;;;;;;4905739;29;20408;-72
2023/02/12 10:26:25;;;;;;;35.50;22.48;;;4.30;92.50;;;;;;4929342;29;20131;-72
2023/02/12 10:28:54;;;;;;;35.50;21.65;;;4.50;92.10;;;;;;4915118;29;20485;-72
2023/02/12 10:31:42;;;;;;;37.22;22.45;;;4.60;91.60;;;;;;4918990;29;20040;-71
2023/02/12 10:34:23;;;;;;;35.75;21.63;;;4.50;92.10;;;;;;4923046;29;20055;-69
2023/02/12 10:37:03;;;;;;;39.10;22.92;;;4.40;92.30;;;;;;4926319;29;20040;-71
2023/02/12 10:40:00;;;;;;;32.78;20.15;;;4.40;92.60;;;;;;4932361;29;20039;-71
2023/02/12 10:42:41;;;;;;;32.83;19.98;;;4.50;92.60;;;;;;4905854;29;20075;-73
2023/02/12 10:45:14;;;;;;;33.97;20.25;;;4.50;92.80;;;;;;4922876;29;20447;-71
2023/02/12 10:47:43;;;;;;;33.33;20.42;;;4.50;93.00;;;;;;4913548;29;20391;-71
2023/02/12 10:50:36;;;;;;;34.72;21.77;;;4.60;93.10;;;;;;4922961;29;21379;-70
2023/02/12 10:53:03;;;;;;;38.63;20.92;;;4.70;92.80;;;;;;4925341;29;20518;-70
2023/02/12 10:55:38;;;;;;;34.35;21.33;;;4.70;93.40;;;;;;4921528;29;20040;-69
2023/02/12 10:58:23;;;;;;;34.38;21.60;;;4.90;93.30;;;;;;4927936;29;20047;-70
2023/02/12 11:00:58;;;;;;;32.80;20.65;;;4.80;93.00;;;;;;4920836;29;20032;-73
2023/02/12 11:03:36;;;;;;;34.17;20.45;;;4.90;93.40;;;;;;4926111;29;20063;-71
2023/02/12 11:06:16;;;;;;;32.03;18.85;;;4.90;93.50;;;;;;4923159;29;20052;-73
2023/02/12 11:08:45;;;;;;;30.95;19.95;;;4.90;93.30;;;;;;4931436;29;20044;-72
2023/02/12 11:11:24;;;;;;;29.52;18.63;;;4.80;93.60;;;;;;4915134;29;20040;-70
2023/02/12 11:14:15;;;;;;;26.08;17.48;;;4.90;93.80;;;;;;4923663;29;20063;-71
2023/02/12 11:16:51;;;;;;;32.42;18.85;;;5.00;93.90;;;;;;4923680;29;20047;-69
2023/02/12 11:19:21;;;;;;;28.17;18.05;;;5.10;93.70;;;;;;4921202;29;20048;-70
2023/02/12 11:21:50;;;;;;;;;;;5.20;93.50;;;;;;4922942;29;20568;-74
2023/02/12 11:24:21;;;;;;;23.85;14.77;;;5.30;93.30;;;;;;4928521;29;19923;-69
2023/02/12 11:26:49;;;;;;;22.77;16.02;;;5.60;93.40;;;;;;4917169;29;20122;-70
2023/02/12 11:29:19;;;;;;;21.67;15.65;;;5.40;92.60;;;;;;4924954;29;20036;-72
2023/02/12 11:32:16;;;;;;;24.55;15.18;;;5.40;92.90;;;;;;4921381;29;20729;-70
2023/02/12 11:34:43;;;;;;;25.77;15.27;;;5.60;92.30;;;;;;4928324;29;20054;-71
2023/02/12 11:37:18;;;;;;;21.52;14.82;;;5.60;92.20;;;;;;4924512;29;20126;-70
2023/02/12 11:39:48;;;;;;;26.65;15.25;;;5.70;92.00;;;;;;4920566;29;20063;-71
2023/02/12 11:42:24;;;;;;;25.35;15.65;;;5.70;92.30;;;;;;4921551;29;20130;-69
2023/02/12 11:44:56;;;;;;;21.77;14.00;;;5.80;92.20;;;;;;4899317;29;20070;-72
2023/02/12 11:47:29;;;;;;;22.92;14.35;;;5.70;91.70;;;;;;4914124;29;20051;-73
2023/02/12 11:50:16;;;;;;;53.78;28.90;;;5.70;91.60;;;;;;4914037;29;20463;-71
2023/02/12 11:52:51;;;;;;;98.35;50.17;;;5.80;92.40;;;;;;4910252;29;20043;-72
2023/02/12 11:55:27;;;;;;;68.55;38.03;;;6.00;92.40;;;;;;4904044;29;20575;-72
2023/02/12 11:58:26;;;;;;;69.32;39.35;;;6.00;91.80;;;;;;4934855;29;20678;-71
2023/02/12 12:01:17;;;;;;;27.23;18.17;;;6.00;91.90;;;;;;4916205;29;20564;-71
2023/02/12 12:04:02;;;;;;;27.27;15.90;;;5.90;91.80;;;;;;4935429;29;20517;-71
2023/02/12 12:07:04;;;;;;;24.65;15.75;;;5.80;92.20;;;;;;4920598;29;20161;-68
2023/02/12 12:09:59;;;;;;;26.90;18.13;;;5.70;92.20;;;;;;4932506;29;20628;-72
2023/02/12 12:12:51;;;;;;;24.13;16.55;;;5.70;93.10;;;;;;4921552;29;20056;-72
2023/02/12 12:21:08;;;;;;;25.02;16.08;;;5.60;92.60;;;;;;4929157;29;20401;-74
2023/02/12 12:23:41;;;;;;;22.90;13.13;;;5.70;93.10;;;;;;4934852;29;20062;-74
2023/02/12 12:26:19;;;;;;;18.67;11.07;;;6.40;95.90;;;;;;4916901;29;20043;-70
2023/02/12 12:29:19;;;;;;;17.73;11.88;;;6.70;95.70;;;;;;4920436;29;20440;-71
2023/02/12 12:31:52;;;;;;;30.83;17.95;;;6.30;96.10;;;;;;4900322;29;20407;-71
2023/02/12 12:34:23;;;;;;;16.90;11.95;;;6.20;97.30;;;;;;4919310;29;20055;-74
2023/02/12 12:37:13;;;;;;;19.45;11.45;;;6.30;97.00;;;;;;4939445;29;20403;-70
2023/02/12 12:40:05;;;;;;;17.05;10.75;;;6.40;96.90;;;;;;4920483;29;20040;-71
2023/02/12 12:42:38;;;;;;;15.45;11.23;;;6.30;97.20;;;;;;4947462;29;20035;-76
2023/02/12 12:45:37;;;;;;;16.15;11.50;;;6.30;97.60;;;;;;4950411;23;20130;-73
2023/02/12 12:48:16;;;;;;;23.10;11.15;;;6.50;97.40;;;;;;4959044;28;20109;-71
2023/02/12 12:51:05;;;;;;;17.50;11.90;;;6.60;97.10;;;;;;4937681;28;20051;-71
2023/02/12 12:53:49;;;;;;;23.33;14.65;;;6.70;96.70;;;;;;4957564;28;20035;-73
2023/02/12 12:56:28;;;;;;;30.05;19.27;;;6.80;95.60;;;;;;4956451;28;20031;-73
2023/02/12 12:59:20;;;;;;;29.50;19.27;;;6.50;94.20;;;;;;4953722;28;20692;-74
2023/02/12 13:02:21;;;;;;;33.50;20.17;;;6.30;94.10;;;;;;4957347;28;20126;-76
2023/02/12 13:05:39;;;;;;;30.88;18.70;;;6.20;94.20;;;;;;4966868;23;20121;-74
2023/02/12 13:08:16;;;;;;;24.25;16.67;;;6.00;94.90;;;;;;4871182;29;20123;-76
2023/02/12 13:10:54;;;;;;;22.02;15.45;;;5.90;95.40;;;;;;4953565;23;20054;-76
2023/02/12 13:13:37;;;;;;;23.50;15.50;;;6.00;95.40;;;;;;4954530;28;20447;-73
2023/02/12 13:16:10;;;;;;;23.35;15.35;;;6.10;95.30;;;;;;4951815;28;20185;-73
2023/02/12 13:19:02;;;;;;;24.40;15.20;;;6.10;94.90;;;;;;4956655;28;20035;-80
2023/02/12 13:21:47;;;;;;;24.13;15.70;;;6.00;95.10;;;;;;4943028;28;20046;-76
2023/02/12 13:24:39;;;;;;;44.75;25.67;;;6.10;95.20;;;;;;4941339;28;20043;-70